This is the latest recevied weather packets stored in our database for station/object VK4NB-13. If no packets are shown the sender has not sent any weather packets the latest 10 day(s).
| Time | Temp. | Humidity | Pressure | Rain* | Wind** | Luminosity | Snow |
|---|---|---|---|---|---|---|---|
| 1777364403 | 22.78° C | 86% | 1018.2 hPa | 1.27 mm | - | - | - |
| 1777364103 | 22.78° C | 85% | 1018.2 hPa | 1.02 mm | - | - | - |
| 1777363824 | 22.78° C | 85% | 1018.2 hPa | 0.25 mm | - | - | - |
| 1777358703 | 24.44° C | 79% | 1017.3 hPa | 0 mm | - | - | - |
| 1777356903 | 25° C | 75% | 1017.2 hPa | 0 mm | - | - | - |
| 1777355703 | 25° C | 73% | 1016.6 hPa | 0 mm | - | - | - |
| 1777353904 | 26.11° C | 72% | 1016.7 hPa | 0 mm | - | - | - |
| 1777353303 | 25.56° C | 73% | 1016.7 hPa | 0 mm | - | - | - |
| 1777351224 | 26.67° C | 70% | 1016.7 hPa | 0 mm | - | - | - |
| 1777350024 | 26.11° C | 72% | 1016.7 hPa | 0 mm | - | - | - |
| 1777347603 | 26.11° C | 73% | 1017 hPa | 0 mm | - | - | - |
| 1777346725 | 26.11° C | 73% | 1017.3 hPa | 0 mm | - | - | - |
| 1777344903 | 26.11° C | 72% | 1017.4 hPa | 0 mm | - | - | - |
| 1777344603 | 25.56° C | 73% | 1017.4 hPa | 0 mm | - | - | - |
| 1777344304 | 25.56° C | 74% | 1017.2 hPa | 0 mm | - | - | - |
| 1777343404 | 25.56° C | 73% | 1017.6 hPa | 0 mm | - | - | - |
| 1777343104 | 25° C | 73% | 1017.7 hPa | 0 mm | - | - | - |
| 1777342803 | 25.56° C | 74% | 1017.7 hPa | 0 mm | - | - | - |
| 1777341601 | 25.56° C | 74% | 1017.7 hPa | 0 mm | - | - | - |
| 1777341000 | 25° C | 75% | 1017.6 hPa | 0 mm | - | - | - |
| 1777340701 | 25.56° C | 74% | 1017.8 hPa | 0 mm | - | - | - |
| 1777338022 | 25° C | 75% | 1018.4 hPa | 0 mm | - | - | - |
| 1777336801 | 25° C | 76% | 1018.6 hPa | 0 mm | - | - | - |
| 1777335301 | 24.44° C | 76% | 1019.1 hPa | 0 mm | - | - | - |
| 1777334701 | 25° C | 75% | 1018.6 hPa | 0 mm | - | - | - |
* Rain latest hour (hover to see other rain measurements)
** Current wind speed in m/s (hover to see current wind gust speed)